Time;durP1;ratioP1;P1;durP2;ratioP2;P2;SDS_P1;SDS_P2;PMS_P1;PMS_P2;Temp;Humidity;BMP_temperature;BMP_pressure;BME280_temperature;BME280_humidity;BME280_pressure;Samples;Min_cycle;Max_cycle;Signal;HPM_P1;HPM_P2
2020/12/11 06:02:33;;;;;;;;;;;;;;;;;;5064671;28;20407;-57
2020/12/11 06:05:00;;;;;;;65.55;6.88;;;;;;;;;;5066024;28;20399;-57
2020/12/11 06:07:26;;;;;;;64.85;9.23;;;;;;;;;;5062656;28;20489;-58
2020/12/11 06:09:55;;;;;;;66.75;8.32;;;;;;;;;;5056882;28;20802;-58
2020/12/11 06:12:27;;;;;;;57.05;7.53;;;;;;;;;;5061716;28;20025;-58
2020/12/11 06:15:04;;;;;;;49.58;7.55;;;;;;;;;;5064438;28;20087;-58
2020/12/11 06:17:37;;;;;;;53.65;6.28;;;;;;;;;;5049086;28;20579;-58
2020/12/11 06:20:04;;;;;;;53.78;8.57;;;;;;;;;;5062700;28;20052;-56
2020/12/11 06:22:30;;;;;;;55.85;8.00;;;;;;;;;;5064655;28;20037;-58
2020/12/11 06:24:56;;;;;;;57.03;8.38;;;;;;;;;;5062292;28;20021;-58
2020/12/11 06:27:31;;;;;;;48.40;6.43;;;;;;;;;;5062288;28;20063;-57
2020/12/11 06:29:58;;;;;;;52.58;7.18;;;;;;;;;;5062380;28;20131;-57
2020/12/11 06:32:32;;;;;;;51.17;7.50;;;;;;;;;;5064016;28;20029;-58
2020/12/11 06:35:11;;;;;;;55.78;7.80;;;;;;;;;;5066266;28;20139;-58
2020/12/11 06:37:37;;;;;;;51.58;7.30;;;;;;;;;;5064960;28;20035;-58
2020/12/11 06:40:04;;;;;;;56.33;8.18;;;;;;;;;;5050512;28;20033;-57
2020/12/11 06:42:36;;;;;;;51.88;6.72;;;;;;;;;;5065863;28;20078;-58
2020/12/11 06:45:17;;;;;;;60.60;7.30;;;;;;;;;;5063386;28;20055;-58
2020/12/11 06:47:47;;;;;;;54.80;6.82;;;;;;;;;;5048232;28;20033;-58
2020/12/11 06:50:13;;;;;;;47.65;7.43;;;;;;;;;;5063946;28;20032;-57
2020/12/11 06:52:39;;;;;;;56.08;8.10;;;;;;;;;;5063634;28;20415;-58
2020/12/11 06:55:05;;;;;;;49.67;8.45;;;;;;;;;;5057046;28;20036;-57
2020/12/11 06:57:32;;;;;;;54.67;9.13;;;;;;;;;;5058504;28;20040;-58
2020/12/11 06:59:58;;;;;;;58.97;7.88;;;;;;;;;;5059858;28;20159;-57
2020/12/11 07:02:28;;;;;;;49.97;7.10;;;;;;;;;;5054031;28;20049;-58
2020/12/11 07:04:54;;;;;;;59.67;8.15;;;;;;;;;;5049839;28;20703;-58
2020/12/11 07:07:29;;;;;;;59.08;7.38;;;;;;;;;;5049732;28;20456;-58
2020/12/11 07:09:55;;;;;;;58.03;8.95;;;;;;;;;;5042542;28;20033;-58
2020/12/11 07:12:21;;;;;;;72.05;9.98;;;;;;;;;;5041661;28;20033;-57
2020/12/11 07:14:48;;;;;;;58.63;9.45;;;;;;;;;;5051170;28;20108;-57
2020/12/11 07:17:26;;;;;;;64.95;9.40;;;;;;;;;;5048935;28;20116;-57
2020/12/11 07:19:52;;;;;;;77.60;10.07;;;;;;;;;;5047258;28;20025;-57
2020/12/11 07:22:19;;;;;;;64.75;8.68;;;;;;;;;;5047751;28;20033;-57
2020/12/11 07:24:47;;;;;;;68.50;9.25;;;;;;;;;;5050067;28;20035;-56
2020/12/11 07:27:13;;;;;;;81.78;10.52;;;;;;;;;;5048105;28;20028;-57
2020/12/11 07:29:47;;;;;;;62.38;9.13;;;;;;;;;;5046972;28;20037;-55
2020/12/11 07:32:17;;;;;;;75.78;9.70;;;;;;;;;;5046285;28;20037;-53
2020/12/11 07:34:43;;;;;;;69.93;10.95;;;;;;;;;;5048071;28;20021;-57
2020/12/11 07:37:09;;;;;;;79.63;10.88;;;;;;;;;;5048605;28;20371;-57
2020/12/11 07:39:35;;;;;;;82.15;10.85;;;;;;;;;;5050722;28;20025;-56
2020/12/11 07:42:03;;;;;;;74.00;9.90;;;;;;;;;;5048758;28;20104;-57
2020/12/11 07:44:31;;;;;;;67.93;8.57;;;;;;;;;;5038925;28;20119;-57
2020/12/11 07:47:01;;;;;;;69.78;9.13;;;;;;;;;;5051864;28;20033;-56
2020/12/11 07:49:40;;;;;;;66.57;9.20;;;;;;;;;;5047734;28;20021;-56
2020/12/11 07:52:07;;;;;;;69.35;8.45;;;;;;;;;;5032310;28;20071;-56
2020/12/11 07:54:34;;;;;;;78.85;10.77;;;;;;;;;;5051298;28;20394;-58
2020/12/11 07:57:15;;;;;;;77.88;9.68;;;;;;;;;;5049463;28;20390;-57
2020/12/11 07:59:42;;;;;;;86.70;12.10;;;;;;;;;;5045249;28;20390;-56
2020/12/11 08:02:08;;;;;;;69.20;10.55;;;;;;;;;;5045969;28;20450;-57
2020/12/11 08:04:37;;;;;;;66.50;10.00;;;;;;;;;;5048383;28;20029;-58
2020/12/11 08:07:04;;;;;;;70.53;10.70;;;;;;;;;;5047197;28;20404;-58
2020/12/11 08:09:31;;;;;;;60.60;8.02;;;;;;;;;;5041099;28;20056;-57
2020/12/11 08:12:10;;;;;;;69.63;10.98;;;;;;;;;;5047571;28;20072;-54
2020/12/11 08:14:40;;;;;;;78.55;10.05;;;;;;;;;;5043461;28;20025;-55
2020/12/11 08:17:11;;;;;;;65.95;9.68;;;;;;;;;;5047855;28;20021;-55
2020/12/11 08:19:37;;;;;;;60.78;9.63;;;;;;;;;;5046519;28;20401;-60
2020/12/11 08:22:10;;;;;;;55.28;8.38;;;;;;;;;;5046878;28;20032;-53
2020/12/11 08:24:36;;;;;;;74.30;8.88;;;;;;;;;;5046671;28;20032;-53
2020/12/11 08:27:02;;;;;;;66.43;9.02;;;;;;;;;;5045586;28;20567;-57
2020/12/11 08:29:28;;;;;;;70.00;9.15;;;;;;;;;;5047543;28;20025;-54
2020/12/11 08:31:54;;;;;;;65.47;9.95;;;;;;;;;;5045775;28;20037;-54
2020/12/11 08:34:20;;;;;;;64.75;8.38;;;;;;;;;;5047130;28;20017;-54
2020/12/11 08:36:47;;;;;;;58.10;8.63;;;;;;;;;;5045873;28;20139;-54
2020/12/11 08:39:13;;;;;;;53.72;6.63;;;;;;;;;;5047357;28;20050;-56
2020/12/11 08:41:45;;;;;;;52.83;6.68;;;;;;;;;;5046927;28;20029;-56
2020/12/11 08:44:16;;;;;;;42.45;8.80;;;;;;;;;;5045913;28;20036;-59
2020/12/11 08:49:29;;;;;;;48.22;6.72;;;;;;;;;;5046232;28;20021;-55
2020/12/11 08:51:55;;;;;;;47.65;7.00;;;;;;;;;;5046081;28;20037;-57
2020/12/11 08:54:28;;;;;;;42.30;7.68;;;;;;;;;;5046824;28;20032;-63
2020/12/11 08:56:54;;;;;;;45.42;7.35;;;;;;;;;;5041553;28;20037;-55
2020/12/11 08:59:20;;;;;;;50.95;7.00;;;;;;;;;;5047042;28;20037;-58
2020/12/11 09:01:46;;;;;;;42.22;5.50;;;;;;;;;;5045975;28;20045;-56
2020/12/11 09:04:12;;;;;;;51.90;8.23;;;;;;;;;;5046164;28;20025;-57
2020/12/11 09:06:38;;;;;;;38.90;5.60;;;;;;;;;;5048876;28;20021;-56
2020/12/11 09:09:05;;;;;;;42.15;7.07;;;;;;;;;;5049185;28;20051;-56
2020/12/11 09:11:31;;;;;;;43.10;6.03;;;;;;;;;;5045947;28;20106;-54
2020/12/11 09:13:57;;;;;;;45.72;5.68;;;;;;;;;;5046208;28;20111;-59
2020/12/11 09:16:23;;;;;;;41.08;6.18;;;;;;;;;;5040816;28;20086;-58
2020/12/11 09:18:49;;;;;;;41.50;7.05;;;;;;;;;;5045673;28;20029;-57
2020/12/11 09:21:15;;;;;;;37.28;5.65;;;;;;;;;;5040385;28;20505;-57
2020/12/11 09:23:42;;;;;;;39.28;6.25;;;;;;;;;;5044979;28;20035;-57
2020/12/11 09:26:08;;;;;;;30.40;6.43;;;;;;;;;;5040808;28;20449;-63
2020/12/11 09:28:34;;;;;;;43.95;5.72;;;;;;;;;;5043765;28;20100;-56
2020/12/11 09:31:00;;;;;;;36.70;5.25;;;;;;;;;;5043241;28;20091;-57
2020/12/11 09:33:28;;;;;;;39.08;6.05;;;;;;;;;;5048634;28;20037;-57
2020/12/11 09:35:55;;;;;;;36.95;5.47;;;;;;;;;;5046078;28;20072;-56
2020/12/11 09:38:21;;;;;;;37.78;6.07;;;;;;;;;;5045018;28;20481;-56
2020/12/11 09:52:07;;;;;;;37.10;5.70;;;;;;;;;;5062617;28;20076;-56
2020/12/11 09:54:35;;;;;;;36.67;6.63;;;;;;;;;;5047245;28;20029;-55
2020/12/11 09:57:01;;;;;;;35.58;5.28;;;;;;;;;;5049142;28;20140;-57
2020/12/11 09:59:32;;;;;;;33.00;5.38;;;;;;;;;;5057191;28;20064;-53
2020/12/11 10:04:34;;;;;;;;;;;;;;;;;;5062861;28;20068;-54
2020/12/11 10:07:00;;;;;;;;;;;;;;;;;;5060892;28;19954;-55
2020/12/11 10:09:26;;;;;;;24.80;3.10;;;;;;;;;;5061949;28;19915;-56
2020/12/11 10:11:54;;;;;;;19.10;2.05;;;;;;;;;;5053133;28;20041;-56
2020/12/11 10:14:29;;;;;;;16.02;1.83;;;;;;;;;;5051970;28;20029;-54
2020/12/11 10:16:55;;;;;;;15.88;2.13;;;;;;;;;;5051889;28;20045;-52
2020/12/11 10:19:22;;;;;;;15.68;2.88;;;;;;;;;;5037988;28;20076;-56
2020/12/11 10:21:48;;;;;;;19.65;1.80;;;;;;;;;;5058938;28;20129;-54
2020/12/11 10:24:15;;;;;;;17.58;2.65;;;;;;;;;;5041616;28;20387;-63
2020/12/11 10:26:41;;;;;;;23.45;2.90;;;;;;;;;;5041189;28;20032;-56
2020/12/11 10:29:08;;;;;;;24.50;2.92;;;;;;;;;;5046280;28;20032;-58
2020/12/11 10:31:34;;;;;;;29.17;3.80;;;;;;;;;;5044279;28;20041;-56
2020/12/11 10:34:00;;;;;;;33.50;5.28;;;;;;;;;;5045583;28;20030;-55
2020/12/11 10:36:30;;;;;;;42.92;4.57;;;;;;;;;;5048312;28;20466;-56
2020/12/11 10:38:56;;;;;;;43.17;5.70;;;;;;;;;;5048116;28;20025;-57
2020/12/11 10:41:23;;;;;;;41.40;5.75;;;;;;;;;;5049474;28;20138;-54
2020/12/11 10:43:49;;;;;;;50.72;7.22;;;;;;;;;;5049741;28;20051;-56
2020/12/11 10:46:15;;;;;;;38.00;6.55;;;;;;;;;;5049771;28;20052;-56
2020/12/11 10:48:41;;;;;;;50.58;5.95;;;;;;;;;;5050067;28;20112;-59
2020/12/11 10:51:11;;;;;;;42.97;6.95;;;;;;;;;;5051609;28;20572;-63
2020/12/11 10:53:37;;;;;;;49.25;7.18;;;;;;;;;;5047631;28;20029;-54
2020/12/11 10:56:06;;;;;;;30.83;5.97;;;;;;;;;;5049320;28;20399;-57
2020/12/11 10:58:33;;;;;;;50.25;7.22;;;;;;;;;;5049742;28;20405;-54
2020/12/11 11:00:59;;;;;;;42.53;5.95;;;;;;;;;;5048148;28;20510;-56
2020/12/11 11:03:28;;;;;;;49.05;6.68;;;;;;;;;;5051208;28;20091;-56
2020/12/11 11:05:56;;;;;;;39.78;6.45;;;;;;;;;;5049759;28;20021;-57
2020/12/11 11:08:32;;;;;;;55.47;7.85;;;;;;;;;;5049614;28;20099;-56
2020/12/11 11:10:58;;;;;;;53.53;7.15;;;;;;;;;;5045594;28;20478;-57
2020/12/11 11:13:34;;;;;;;44.60;7.72;;;;;;;;;;5049756;28;20433;-58
2020/12/11 11:16:01;;;;;;;52.40;7.80;;;;;;;;;;5049563;28;20029;-54
2020/12/11 11:21:27;;;;;;;49.10;7.20;;;;;;;;;;5048787;28;20459;-57
2020/12/11 11:24:16;;;;;;;41.55;6.15;;;;;;;;;;5048005;28;20025;-53
2020/12/11 11:29:29;;;;;;;35.88;5.15;;;;;;;;;;5028468;28;20445;-56
2020/12/11 11:31:55;;;;;;;48.30;5.75;;;;;;;;;;5028436;28;20053;-55
2020/12/11 11:34:21;;;;;;;45.67;7.22;;;;;;;;;;5028515;28;20091;-57
2020/12/11 11:36:50;;;;;;;41.97;6.95;;;;;;;;;;5028846;28;20386;-59
2020/12/11 11:39:17;;;;;;;33.45;6.35;;;;;;;;;;5027332;28;20076;-57
2020/12/11 11:41:49;;;;;;;34.95;5.47;;;;;;;;;;5027960;28;20041;-54
2020/12/11 11:46:42;;;;;;;36.00;5.78;;;;;;;;;;5028070;28;20045;-54
2020/12/11 11:49:10;;;;;;;36.72;4.60;;;;;;;;;;5025327;28;20103;-56
2020/12/11 11:51:44;;;;;;;36.25;5.00;;;;;;;;;;5028227;28;20137;-53
2020/12/11 11:54:10;;;;;;;37.53;6.07;;;;;;;;;;5028117;28;20045;-56
2020/12/11 11:56:36;;;;;;;42.92;7.68;;;;;;;;;;5023700;28;20434;-57
2020/12/11 11:59:03;;;;;;;32.15;6.25;;;;;;;;;;5027668;28;20536;-56
2020/12/11 12:01:29;;;;;;;29.67;4.97;;;;;;;;;;5027362;28;20049;-55
2020/12/11 12:03:55;;;;;;;44.30;7.18;;;;;;;;;;5027909;28;21197;-57
2020/12/11 12:06:22;;;;;;;35.33;6.80;;;;;;;;;;5037741;28;20051;-57
2020/12/11 12:08:48;;;;;;;49.03;7.10;;;;;;;;;;5047084;28;20021;-57
2020/12/11 12:11:15;;;;;;;36.72;5.85;;;;;;;;;;5046697;28;20041;-54
2020/12/11 12:13:41;;;;;;;39.42;6.47;;;;;;;;;;5046983;28;20056;-56
2020/12/11 12:16:07;;;;;;;38.58;6.30;;;;;;;;;;5046881;28;20028;-57
2020/12/11 12:18:37;;;;;;;36.22;5.25;;;;;;;;;;5051091;28;20029;-56
2020/12/11 12:21:18;;;;;;;32.83;5.47;;;;;;;;;;5047820;28;20037;-53
2020/12/11 12:27:20;;;;;;;43.50;5.88;;;;;;;;;;5047075;28;20074;-56
2020/12/11 12:29:18;;;;;;;43.03;6.38;;;;;;;;;;5047159;28;20064;-55
2020/12/11 12:31:53;;;;;;;39.17;5.47;;;;;;;;;;5046562;28;20037;-57
2020/12/11 12:37:46;;;;;;;32.80;6.78;;;;;;;;;;5048649;28;20051;-55
2020/12/11 12:45:08;;;;;;;33.08;4.13;;;;;;;;;;5049056;28;20489;-54
2020/12/11 12:47:34;;;;;;;35.92;4.72;;;;;;;;;;5046281;28;20313;-53
2020/12/11 12:50:01;;;;;;;36.22;4.38;;;;;;;;;;5046538;28;20025;-55
2020/12/11 12:52:27;;;;;;;33.60;5.75;;;;;;;;;;5046383;28;20036;-56
2020/12/11 12:54:53;;;;;;;29.67;4.85;;;;;;;;;;5048052;28;20029;-55
2020/12/11 13:05:09;;;;;;;39.08;5.72;;;;;;;;;;5046276;28;20025;-54
2020/12/11 13:07:36;;;;;;;40.97;5.80;;;;;;;;;;5045969;28;20018;-56
2020/12/11 13:10:07;;;;;;;41.13;6.65;;;;;;;;;;5046996;28;20383;-56
2020/12/11 13:12:33;;;;;;;37.90;5.72;;;;;;;;;;5045974;28;20332;-52
2020/12/11 13:14:59;;;;;;;44.50;6.10;;;;;;;;;;5046511;28;20512;-58
2020/12/11 13:17:25;;;;;;;44.35;9.20;;;;;;;;;;5045977;28;20021;-51
2020/12/11 13:19:52;;;;;;;60.78;7.82;;;;;;;;;;5046354;28;20104;-55
2020/12/11 13:27:40;;;;;;;62.25;8.15;;;;;;;;;;5044554;28;20524;-56
2020/12/11 13:30:06;;;;;;;64.45;8.88;;;;;;;;;;5048061;28;20556;-52
2020/12/11 13:32:33;;;;;;;62.42;8.15;;;;;;;;;;5048713;28;20019;-52
2020/12/11 13:34:59;;;;;;;59.17;8.88;;;;;;;;;;5043183;28;20425;-59
2020/12/11 13:37:28;;;;;;;60.80;9.07;;;;;;;;;;5046292;28;20029;-56
2020/12/11 13:40:04;;;;;;;56.42;8.05;;;;;;;;;;5047551;28;20037;-55
2020/12/11 13:42:30;;;;;;;;;;;;;;;;;;5049241;28;20025;-59
2020/12/11 13:44:56;;;;;;;;;;;;;;;;;;5045779;28;19955;-57
2020/12/11 13:47:22;;;;;;;;;;;;;;;;;;5046191;28;19912;-55
2020/12/11 13:49:48;;;;;;;;;;;;;;;;;;5045967;28;19915;-56
2020/12/11 13:52:14;;;;;;;;;;;;;;;;;;5047552;28;19938;-56
2020/12/11 13:54:40;;;;;;;61.03;9.10;;;;;;;;;;5042191;28;19913;-57
2020/12/11 13:57:06;;;;;;;39.17;5.13;;;;;;;;;;5048102;28;20041;-54
2020/12/11 13:59:32;;;;;;;40.05;5.60;;;;;;;;;;5041176;28;20104;-61
2020/12/11 14:01:59;;;;;;;51.28;5.97;;;;;;;;;;5040119;28;20044;-54
2020/12/11 14:04:25;;;;;;;49.85;4.55;;;;;;;;;;5046438;28;20080;-55
2020/12/11 14:06:52;;;;;;;30.85;3.50;;;;;;;;;;5048360;28;20082;-56
2020/12/11 14:09:18;;;;;;;35.53;5.45;;;;;;;;;;5071782;28;20116;-61
2020/12/11 14:11:45;;;;;;;38.65;4.70;;;;;;;;;;5046506;28;20063;-58
2020/12/11 14:14:11;;;;;;;36.30;3.67;;;;;;;;;;5051957;28;20478;-53
2020/12/11 14:24:17;;;;;;;53.17;6.43;;;;;;;;;;5050825;28;20095;-56
2020/12/11 14:26:50;;;;;;;45.75;5.95;;;;;;;;;;5049150;28;20033;-60
2020/12/11 14:29:16;;;;;;;41.80;6.32;;;;;;;;;;5050357;28;20025;-59
2020/12/11 14:31:42;;;;;;;44.90;5.50;;;;;;;;;;5051343;28;20045;-57
2020/12/11 14:34:08;;;;;;;41.15;5.20;;;;;;;;;;5039814;28;20017;-60
2020/12/11 14:36:34;;;;;;;43.55;5.70;;;;;;;;;;5051264;28;20028;-60
2020/12/11 14:39:06;;;;;;;48.40;6.40;;;;;;;;;;5051394;28;20033;-60
2020/12/11 14:41:32;;;;;;;49.58;6.38;;;;;;;;;;5050424;28;20055;-60
2020/12/11 14:43:58;;;;;;;38.80;6.32;;;;;;;;;;5044531;28;20043;-60
2020/12/11 14:46:25;;;;;;;53.20;6.50;;;;;;;;;;5049859;28;20059;-61
2020/12/11 14:48:52;;;;;;;44.55;7.10;;;;;;;;;;5049111;28;20028;-70
2020/12/11 14:51:18;;;;;;;54.30;6.22;;;;;;;;;;5052541;28;20536;-69
2020/12/11 14:53:45;;;;;;;40.78;6.40;;;;;;;;;;5049623;28;20033;-68
2020/12/11 14:56:11;;;;;;;62.85;7.45;;;;;;;;;;5048711;28;20521;-63
2020/12/11 14:58:37;;;;;;;54.72;6.68;;;;;;;;;;5050079;28;20021;-77
2020/12/11 15:01:04;;;;;;;42.05;4.70;;;;;;;;;;5048807;28;20048;-63
2020/12/11 15:03:30;;;;;;;37.22;4.55;;;;;;;;;;5051867;28;20025;-73
2020/12/11 15:05:59;;;;;;;28.65;3.95;;;;;;;;;;5044446;28;20059;-59
2020/12/11 15:08:25;;;;;;;44.90;5.93;;;;;;;;;;5050355;28;20045;-72
2020/12/11 15:10:51;;;;;;;48.15;5.72;;;;;;;;;;5049736;28;20086;-72
2020/12/11 15:13:17;;;;;;;39.25;5.45;;;;;;;;;;5048469;28;20022;-60
2020/12/11 15:15:43;;;;;;;42.67;5.93;;;;;;;;;;5051388;28;20038;-56
2020/12/11 15:18:09;;;;;;;53.80;5.88;;;;;;;;;;5051541;28;20029;-57
2020/12/11 15:20:36;;;;;;;60.75;7.90;;;;;;;;;;5048916;28;20546;-58
2020/12/11 15:23:02;;;;;;;38.08;5.32;;;;;;;;;;5050598;28;20024;-59
2020/12/11 15:25:28;;;;;;;52.40;7.97;;;;;;;;;;5049119;28;20040;-57
2020/12/11 15:27:54;;;;;;;49.67;7.40;;;;;;;;;;5050500;28;20036;-56
2020/12/11 15:30:20;;;;;;;48.25;5.60;;;;;;;;;;5050498;28;20036;-57
2020/12/11 15:32:46;;;;;;;43.83;5.35;;;;;;;;;;5048061;28;20406;-58
2020/12/11 15:35:12;;;;;;;50.70;7.20;;;;;;;;;;5042851;28;20112;-59
2020/12/11 15:37:39;;;;;;;36.38;6.88;;;;;;;;;;5047146;28;20526;-57
2020/12/11 15:40:05;;;;;;;47.60;6.72;;;;;;;;;;5030917;28;20028;-58
2020/12/11 15:42:31;;;;;;;45.25;6.38;;;;;;;;;;5052153;28;20079;-57
2020/12/11 15:44:57;;;;;;;47.53;7.53;;;;;;;;;;5052472;28;20035;-57
2020/12/11 15:47:23;;;;;;;42.40;5.50;;;;;;;;;;5048205;28;20029;-58
2020/12/11 15:49:50;;;;;;;45.55;6.07;;;;;;;;;;5048708;28;20021;-57
2020/12/11 15:52:17;;;;;;;44.55;5.10;;;;;;;;;;5048521;28;20080;-57
2020/12/11 15:54:43;;;;;;;29.77;5.32;;;;;;;;;;5051215;28;20082;-57
2020/12/11 15:57:10;;;;;;;40.00;5.13;;;;;;;;;;5051313;28;20052;-55
2020/12/11 15:59:36;;;;;;;38.28;5.78;;;;;;;;;;5046965;28;20020;-57
2020/12/11 16:02:06;;;;;;;38.30;6.22;;;;;;;;;;5046760;28;20441;-58
2020/12/11 16:04:33;;;;;;;46.00;6.53;;;;;;;;;;5044393;28;20033;-58
2020/12/11 16:06:59;;;;;;;46.05;6.53;;;;;;;;;;5043568;28;20037;-57
2020/12/11 16:09:26;;;;;;;19.60;3.53;;;;;;;;;;5045401;28;20047;-57
2020/12/11 16:11:56;;;;;;;14.90;2.28;;;;;;;;;;5041560;28;20037;-57
2020/12/11 16:14:24;;;;;;;21.55;2.60;;;;;;;;;;5043395;28;20082;-58
2020/12/11 16:16:50;;;;;;;31.38;3.35;;;;;;;;;;5045460;28;20569;-57
2020/12/11 16:19:17;;;;;;;24.95;2.72;;;;;;;;;;5043794;28;20017;-49
2020/12/11 16:21:44;;;;;;;19.83;3.80;;;;;;;;;;5046761;28;20078;-51
2020/12/11 16:24:10;;;;;;;40.17;3.65;;;;;;;;;;5048041;28;20103;-59
2020/12/11 16:26:38;;;;;;;32.67;4.88;;;;;;;;;;5045248;28;20024;-58
2020/12/11 16:29:04;;;;;;;30.20;5.03;;;;;;;;;;5044163;28;20035;-59
2020/12/11 16:31:31;;;;;;;36.30;4.80;;;;;;;;;;5045464;28;20067;-60
2020/12/11 16:33:57;;;;;;;47.42;5.05;;;;;;;;;;5044293;28;20030;-60
2020/12/11 16:36:23;;;;;;;42.63;5.40;;;;;;;;;;5046736;28;20033;-60
2020/12/11 16:38:49;;;;;;;41.03;6.97;;;;;;;;;;5044471;28;20104;-59
2020/12/11 16:41:15;;;;;;;36.50;5.78;;;;;;;;;;5042318;28;20444;-59
2020/12/11 16:44:01;;;;;;;37.63;5.13;;;;;;;;;;5040104;28;20418;-60
2020/12/11 16:46:29;;;;;;;34.75;4.97;;;;;;;;;;5044106;28;20033;-61
2020/12/11 16:49:00;;;;;;;39.13;4.75;;;;;;;;;;5047063;28;20037;-59
2020/12/11 16:51:33;;;;;;;39.20;5.10;;;;;;;;;;5047915;28;20094;-59
2020/12/11 16:54:00;;;;;;;44.38;4.57;;;;;;;;;;5045668;28;20025;-58
2020/12/11 16:56:27;;;;;;;40.08;5.68;;;;;;;;;;5038918;28;20021;-59
2020/12/11 16:58:57;;;;;;;34.35;5.07;;;;;;;;;;5043676;28;20073;-60
2020/12/11 17:01:26;;;;;;;37.42;5.25;;;;;;;;;;5043982;28;20052;-63
2020/12/11 17:04:28;;;;;;;36.80;6.65;;;;;;;;;;5042146;28;20033;-62
2020/12/11 17:06:55;;;;;;;39.75;6.65;;;;;;;;;;5047464;28;20044;-59
2020/12/11 17:09:21;;;;;;;27.42;4.38;;;;;;;;;;5049579;28;20029;-59
2020/12/11 17:11:55;;;;;;;30.33;4.22;;;;;;;;;;5045656;28;20037;-59
2020/12/11 17:14:21;;;;;;;22.98;3.15;;;;;;;;;;5045352;28;20029;-59
2020/12/11 17:16:49;;;;;;;23.73;3.08;;;;;;;;;;5045050;28;20045;-60
2020/12/11 17:19:15;;;;;;;31.73;3.50;;;;;;;;;;5045275;28;20120;-60
2020/12/11 17:21:41;;;;;;;27.92;4.25;;;;;;;;;;5048118;28;20032;-62
2020/12/11 17:24:07;;;;;;;23.38;3.28;;;;;;;;;;5046023;28;20029;-60
2020/12/11 17:26:35;;;;;;;29.55;3.15;;;;;;;;;;5044798;28;20039;-60
2020/12/11 17:29:07;;;;;;;32.17;4.25;;;;;;;;;;5044833;28;20087;-59
2020/12/11 17:37:10;;;;;;;13.15;2.03;;;;;;;;;;5005831;28;20030;-60
2020/12/11 17:39:36;;;;;;;25.30;2.85;;;;;;;;;;5006100;28;20188;-59
2020/12/11 17:42:02;;;;;;;30.67;4.15;;;;;;;;;;5005957;28;20044;-60
2020/12/11 17:44:30;;;;;;;20.15;3.55;;;;;;;;;;5005703;28;20620;-60
2020/12/11 17:46:57;;;;;;;27.10;3.20;;;;;;;;;;5005769;28;20124;-60
2020/12/11 17:49:23;;;;;;;42.65;3.55;;;;;;;;;;5005451;28;20426;-60
2020/12/11 17:51:52;;;;;;;33.45;3.97;;;;;;;;;;5004702;28;20133;-59
2020/12/11 17:54:19;;;;;;;24.80;3.55;;;;;;;;;;5005316;28;20046;-59
2020/12/11 17:56:46;;;;;;;36.38;4.82;;;;;;;;;;5007304;28;20410;-60
2020/12/11 17:59:12;;;;;;;34.50;4.32;;;;;;;;;;5004625;28;20034;-59
2020/12/11 18:01:38;;;;;;;36.80;3.42;;;;;;;;;;5007056;28;20057;-60
2020/12/11 18:04:04;;;;;;;37.38;4.30;;;;;;;;;;5007392;28;20708;-63
2020/12/11 18:06:34;;;;;;;36.13;4.80;;;;;;;;;;5008785;28;20046;-60
2020/12/11 18:09:00;;;;;;;30.48;4.03;;;;;;;;;;5006449;28;20057;-60
2020/12/11 18:11:28;;;;;;;31.75;3.42;;;;;;;;;;5037442;28;20055;-61
2020/12/11 18:13:54;;;;;;;35.65;3.42;;;;;;;;;;5049926;28;20052;-60
2020/12/11 18:16:20;;;;;;;34.25;3.58;;;;;;;;;;5049728;28;20071;-59
2020/12/11 18:18:47;;;;;;;25.60;2.97;;;;;;;;;;5049941;28;20104;-59
2020/12/11 18:21:13;;;;;;;24.92;3.50;;;;;;;;;;5049029;28;20029;-58
2020/12/11 18:23:40;;;;;;;18.60;2.97;;;;;;;;;;5049820;28;20390;-59
2020/12/11 18:26:10;;;;;;;26.75;3.55;;;;;;;;;;5049228;28;20576;-59
2020/12/11 18:28:37;;;;;;;25.67;3.40;;;;;;;;;;5049708;28;20079;-59
2020/12/11 18:31:03;;;;;;;33.70;3.22;;;;;;;;;;5049693;28;20075;-60
2020/12/11 18:33:31;;;;;;;27.30;3.53;;;;;;;;;;5050288;28;20055;-59
2020/12/11 18:35:57;;;;;;;21.52;3.10;;;;;;;;;;5049864;28;20048;-59
2020/12/11 18:38:24;;;;;;;23.67;2.95;;;;;;;;;;5049001;28;20448;-59
2020/12/11 18:40:51;;;;;;;28.35;3.92;;;;;;;;;;5048622;28;20029;-61
2020/12/11 18:43:17;;;;;;;31.33;4.32;;;;;;;;;;5048375;28;20440;-60
2020/12/11 18:45:43;;;;;;;34.88;5.07;;;;;;;;;;5049907;28;20086;-59
2020/12/11 18:48:13;;;;;;;28.10;3.92;;;;;;;;;;5049859;28;20545;-59
2020/12/11 18:50:39;;;;;;;35.03;4.00;;;;;;;;;;5049376;28;20033;-60
2020/12/11 18:53:05;;;;;;;25.10;3.42;;;;;;;;;;5049517;28;20386;-60
2020/12/11 18:55:45;;;;;;;22.17;3.10;;;;;;;;;;5049033;28;20108;-61
2020/12/11 18:58:11;;;;;;;25.85;3.28;;;;;;;;;;5034909;28;20393;-60
2020/12/11 19:00:37;;;;;;;37.40;5.20;;;;;;;;;;5052615;28;20033;-60
2020/12/11 19:03:03;;;;;;;28.88;4.82;;;;;;;;;;5046425;28;20033;-60
2020/12/11 19:05:30;;;;;;;43.20;5.05;;;;;;;;;;5043420;28;20422;-67
2020/12/11 19:07:56;;;;;;;52.15;6.60;;;;;;;;;;5038969;28;20029;-65
2020/12/11 19:10:22;;;;;;;44.30;7.32;;;;;;;;;;5045875;28;20025;-61
2020/12/11 19:12:48;;;;;;;34.85;5.05;;;;;;;;;;5045194;28;20037;-60
2020/12/11 19:15:15;;;;;;;32.25;5.57;;;;;;;;;;5048226;28;20029;-61
2020/12/11 19:17:41;;;;;;;31.83;5.57;;;;;;;;;;5045624;28;20612;-60
2020/12/11 19:20:07;;;;;;;37.17;5.30;;;;;;;;;;5046399;28;20075;-60
2020/12/11 19:22:33;;;;;;;35.95;5.13;;;;;;;;;;5046639;28;20029;-62
2020/12/11 19:25:00;;;;;;;34.15;5.85;;;;;;;;;;5045787;28;20044;-60
2020/12/11 19:27:27;;;;;;;35.17;4.25;;;;;;;;;;5049478;28;20131;-61
2020/12/11 19:29:53;;;;;;;32.72;4.18;;;;;;;;;;5043703;28;20417;-65
2020/12/11 19:32:19;;;;;;;23.50;3.47;;;;;;;;;;5043328;28;20041;-65
2020/12/11 19:34:45;;;;;;;36.60;4.78;;;;;;;;;;5044351;28;20021;-60
2020/12/11 19:37:11;;;;;;;32.70;5.22;;;;;;;;;;5046572;28;20037;-60
2020/12/11 19:39:41;;;;;;;45.45;5.22;;;;;;;;;;5050012;28;20795;-62
2020/12/11 19:42:07;;;;;;;36.63;4.88;;;;;;;;;;5046227;28;20028;-60
2020/12/11 19:44:34;;;;;;;41.30;5.22;;;;;;;;;;5044023;28;20028;-61
2020/12/11 19:47:00;;;;;;;37.55;4.90;;;;;;;;;;5045690;28;20414;-60
2020/12/11 19:49:26;;;;;;;33.72;3.47;;;;;;;;;;5048065;28;20549;-60
2020/12/11 19:51:52;;;;;;;38.33;3.75;;;;;;;;;;5046475;28;20040;-61
2020/12/11 19:54:18;;;;;;;33.67;4.70;;;;;;;;;;5045081;28;20100;-61
2020/12/11 19:56:44;;;;;;;27.02;3.58;;;;;;;;;;5040590;28;20673;-62
2020/12/11 19:59:11;;;;;;;28.65;4.30;;;;;;;;;;5046272;28;20494;-61
2020/12/11 20:01:40;;;;;;;25.35;4.07;;;;;;;;;;5047275;28;20102;-60
2020/12/11 20:04:06;;;;;;;23.20;4.35;;;;;;;;;;5046643;28;20025;-61
2020/12/11 20:07:06;;;;;;;35.50;4.88;;;;;;;;;;5048918;28;20029;-60
2020/12/11 20:09:33;;;;;;;36.33;5.32;;;;;;;;;;5047904;28;20050;-62
2020/12/11 20:11:59;;;;;;;31.08;3.78;;;;;;;;;;5045214;28;20041;-61
2020/12/11 20:14:25;;;;;;;27.40;4.35;;;;;;;;;;5044127;28;20029;-61
2020/12/11 20:16:52;;;;;;;31.33;4.18;;;;;;;;;;5044819;28;20029;-62
2020/12/11 20:19:18;;;;;;;35.00;5.10;;;;;;;;;;5045513;28;20407;-62
2020/12/11 20:21:44;;;;;;;26.00;4.20;;;;;;;;;;5048674;28;20029;-61
2020/12/11 20:24:10;;;;;;;38.03;4.60;;;;;;;;;;5046745;28;20040;-61
2020/12/11 20:26:36;;;;;;;24.75;3.72;;;;;;;;;;5044475;28;20074;-61
2020/12/11 20:29:03;;;;;;;34.88;4.07;;;;;;;;;;5042996;28;20413;-62
2020/12/11 20:31:29;;;;;;;23.77;3.05;;;;;;;;;;5045081;28;20040;-62
2020/12/11 20:33:55;;;;;;;15.65;2.28;;;;;;;;;;5044936;28;20036;-60
2020/12/11 20:36:22;;;;;;;22.92;2.20;;;;;;;;;;5045355;28;20041;-61
2020/12/11 20:38:48;;;;;;;20.88;3.53;;;;;;;;;;5043169;28;20052;-61
2020/12/11 20:41:15;;;;;;;17.60;3.25;;;;;;;;;;5042228;28;20495;-62
2020/12/11 20:43:41;;;;;;;24.67;3.28;;;;;;;;;;5043701;28;20589;-61
2020/12/11 20:46:07;;;;;;;23.40;3.72;;;;;;;;;;5043648;28;20707;-64
2020/12/11 20:48:33;;;;;;;27.13;3.50;;;;;;;;;;5047589;28;20041;-65
2020/12/11 20:50:59;;;;;;;30.02;4.45;;;;;;;;;;5043072;28;20041;-61
2020/12/11 20:53:25;;;;;;;34.63;5.10;;;;;;;;;;5042958;28;20025;-61
2020/12/11 20:55:51;;;;;;;30.33;4.45;;;;;;;;;;5044267;28;20029;-62
2020/12/11 20:58:18;;;;;;;43.67;5.57;;;;;;;;;;5042644;28;20554;-62
2020/12/11 21:00:44;;;;;;;30.70;5.07;;;;;;;;;;5042033;28;20083;-62
2020/12/11 21:03:10;;;;;;;33.45;6.07;;;;;;;;;;5047127;28;20044;-64
2020/12/11 21:05:36;;;;;;;32.00;4.45;;;;;;;;;;5051769;28;20024;-61
2020/12/11 21:08:03;;;;;;;31.02;3.58;;;;;;;;;;5054405;28;20032;-62
2020/12/11 21:10:29;;;;;;;24.45;4.38;;;;;;;;;;5054372;28;20470;-60
2020/12/11 21:12:55;;;;;;;25.67;3.00;;;;;;;;;;5057278;28;20047;-62
2020/12/11 21:15:21;;;;;;;21.25;2.65;;;;;;;;;;5057688;28;20091;-60
2020/12/11 21:17:47;;;;;;;23.00;3.35;;;;;;;;;;5053850;28;20067;-60
2020/12/11 21:20:14;;;;;;;25.50;4.00;;;;;;;;;;5051601;28;20529;-61
2020/12/11 21:22:40;;;;;;;38.00;4.50;;;;;;;;;;5045245;28;20502;-61
2020/12/11 21:25:07;;;;;;;28.70;3.97;;;;;;;;;;5053474;28;20028;-62
2020/12/11 21:27:33;;;;;;;34.15;4.30;;;;;;;;;;5059074;28;20028;-60
2020/12/11 21:30:02;;;;;;;36.25;4.30;;;;;;;;;;5043385;28;20037;-62
2020/12/11 21:35:37;;;;;;;29.60;3.70;;;;;;;;;;5050899;28;20090;-61
2020/12/11 21:37:56;;;;;;;30.50;3.92;;;;;;;;;;5051392;28;20438;-60
2020/12/11 21:40:25;;;;;;;25.70;2.88;;;;;;;;;;5048837;28;20029;-59